Time;durP1;ratioP1;P1;durP2;ratioP2;P2;SDS_P1;SDS_P2;PMS_P1;PMS_P2;Temp;Humidity;BMP_temperature;BMP_pressure;BME280_temperature;BME280_humidity;BME280_pressure;Samples;Min_cycle;Max_cycle;Signal;HPM_P1;HPM_P2
2021/08/27 00:02:13;;;;;;;1656.30;999.90;;;;;;;17.27;85.63;93036.03;5090170;28;20488;-45
2021/08/27 00:04:38;;;;;;;1738.82;999.90;;;;;;;17.30;86.58;93032.03;5090184;28;20028;-47
2021/08/27 00:07:04;;;;;;;1723.82;999.90;;;;;;;17.31;85.70;93029.97;5089835;28;20493;-47
2021/08/27 00:09:29;;;;;;;1457.65;994.78;;;;;;;17.22;85.64;93025.97;5090175;28;20032;-46
2021/08/27 00:11:55;;;;;;;1640.10;999.90;;;;;;;17.07;85.88;93003.34;5089828;28;20397;-46
2021/08/27 00:14:21;;;;;;;1279.45;946.70;;;;;;;17.21;85.02;93023.78;5089923;28;20024;-49
2021/08/27 00:16:46;;;;;;;995.42;865.50;;;;;;;17.21;84.54;93026.56;5089963;28;20025;-48
2021/08/27 00:19:12;;;;;;;1563.38;999.90;;;;;;;17.25;84.39;93035.19;5089674;28;20020;-47
2021/08/27 00:21:37;;;;;;;791.30;717.15;;;;;;;17.29;83.59;93030.59;5089789;28;20031;-46
2021/08/27 00:24:03;;;;;;;859.92;778.90;;;;;;;17.30;83.80;93034.13;5088366;28;20035;-45
2021/08/27 00:26:30;;;;;;;1154.30;946.83;;;;;;;17.30;83.94;93036.91;5089578;28;20044;-48
2021/08/27 00:28:55;;;;;;;1140.47;932.22;;;;;;;17.33;84.24;93038.47;5089500;28;20560;-45
2021/08/27 00:31:21;;;;;;;1252.40;942.13;;;;;;;17.35;84.44;93039.34;5089694;28;20103;-47
2021/08/27 00:33:46;;;;;;;1238.55;928.95;;;;;;;17.33;84.65;93042.00;5089952;28;20469;-46
2021/08/27 00:36:12;;;;;;;1446.18;999.60;;;;;;;17.31;84.98;93041.13;5089505;28;20051;-46
2021/08/27 00:38:37;;;;;;;1461.25;999.90;;;;;;;17.36;85.32;93031.69;5093381;28;20070;-47
2021/08/27 00:41:03;;;;;;;1304.13;956.67;;;;;;;17.39;84.78;93033.25;5093901;28;20034;-45
2021/08/27 00:43:28;;;;;;;1435.60;997.03;;;;;;;17.37;85.19;93027.56;5093935;28;20450;-48
2021/08/27 00:45:54;;;;;;;1575.07;999.90;;;;;;;17.39;85.74;93017.25;5093822;28;20484;-46
2021/08/27 00:48:19;;;;;;;1467.28;999.90;;;;;;;17.43;85.21;93017.50;5093445;28;20061;-45
2021/08/27 00:50:46;;;;;;;1352.32;997.50;;;;;;;17.46;85.23;93023.94;5093362;28;20035;-47
2021/08/27 00:53:12;;;;;;;1614.07;999.90;;;;;;;17.47;86.28;93022.63;5093593;28;20023;-45
2021/08/27 00:55:38;;;;;;;1691.72;999.90;;;;;;;17.45;86.66;93022.50;5093330;28;20020;-46
2021/08/27 00:58:04;;;;;;;1693.82;999.90;;;;;;;17.44;86.41;93018.97;5093500;28;20024;-46
2021/08/27 01:00:30;;;;;;;1651.15;999.90;;;;;;;17.46;86.47;93026.72;5093582;28;20031;-46
2021/08/27 01:02:55;;;;;;;1663.53;999.90;;;;;;;17.46;86.56;93021.16;5093076;28;20027;-46
2021/08/27 01:05:21;;;;;;;1738.85;999.90;;;;;;;17.47;86.81;93031.00;5093154;28;20016;-46
2021/08/27 01:08:11;;;;;;;1743.45;999.90;;;;;;;17.49;86.55;93024.81;5093176;28;20024;-46
2021/08/27 01:10:40;;;;;;;1750.82;999.90;;;;;;;17.46;87.39;93032.31;5092295;28;20074;-45
2021/08/27 01:13:29;;;;;;;1828.97;999.90;;;;;;;17.43;87.52;93030.75;5091947;28;20028;-44
2021/08/27 01:16:14;;;;;;;1895.70;999.90;;;;;;;17.39;87.46;93030.47;5092118;28;20028;-45
2021/08/27 01:18:58;;;;;;;1999.90;999.90;;;;;;;17.23;88.61;93041.38;5092061;28;20028;-46
2021/08/27 01:21:38;;;;;;;1999.90;999.90;;;;;;;17.09;89.97;93043.25;5092738;28;20055;-45
2021/08/27 01:24:07;;;;;;;1657.43;823.33;;;;;;;17.06;90.81;93044.47;5092880;28;20082;-45
2021/08/27 01:26:36;;;;;;;1999.90;999.90;;;;;;;17.11;90.48;93040.59;5092740;28;20040;-44
2021/08/27 01:29:03;;;;;;;1732.63;874.20;;;;;;;17.14;90.67;93028.25;5092745;28;20039;-47
2021/08/27 01:31:28;;;;;;;1999.90;999.90;;;;;;;17.20;90.64;93027.88;5092824;28;20031;-46
2021/08/27 01:33:58;;;;;;;1999.90;999.90;;;;;;;17.29;90.16;93038.22;5092939;28;20036;-46
2021/08/27 01:36:26;;;;;;;1999.90;999.90;;;;;;;17.23;89.37;93016.28;5092778;28;20027;-46
2021/08/27 01:38:55;;;;;;;1999.90;999.90;;;;;;;17.24;88.40;93003.03;5091583;28;20038;-47
2021/08/27 01:41:20;;;;;;;1999.90;999.90;;;;;;;17.29;88.13;92993.59;5092848;28;20039;-46
2021/08/27 01:43:46;;;;;;;1999.90;999.90;;;;;;;17.47;88.17;93008.66;5092796;28;20028;-46
2021/08/27 01:46:13;;;;;;;1989.07;999.90;;;;;;;17.44;88.15;93007.81;5091172;28;20016;-47
2021/08/27 01:48:38;;;;;;;1999.90;999.90;;;;;;;17.39;88.01;92996.97;5090674;28;20016;-46
2021/08/27 01:51:08;;;;;;;1999.90;999.90;;;;;;;17.56;87.96;93007.13;5092195;28;20035;-47
2021/08/27 01:53:34;;;;;;;1991.90;999.90;;;;;;;17.56;87.73;93023.88;5072526;28;20028;-47
2021/08/27 01:56:01;;;;;;;1952.03;999.90;;;;;;;17.63;87.59;93023.63;5091281;28;20023;-47
2021/08/27 01:58:29;;;;;;;1980.65;999.90;;;;;;;17.63;87.30;93029.22;5092348;28;20020;-46
2021/08/27 02:00:58;;;;;;;1588.78;999.90;;;;;;;17.59;86.71;93020.59;5091155;28;20019;-46
2021/08/27 02:03:26;;;;;;;1768.70;999.90;;;;;;;17.57;86.80;93026.06;5091997;28;20554;-46
2021/08/27 02:05:52;;;;;;;1584.70;999.90;;;;;;;17.57;86.10;93030.91;5092339;28;20028;-46
2021/08/27 02:08:18;;;;;;;1498.07;999.90;;;;;;;17.55;86.31;93025.94;5091073;28;20386;-46
2021/08/27 02:10:44;;;;;;;1679.57;999.90;;;;;;;17.52;86.23;93029.22;5091967;28;20020;-46
2021/08/27 02:13:10;;;;;;;1686.65;999.90;;;;;;;17.53;86.64;93022.28;5090718;28;20130;-46
2021/08/27 02:15:36;;;;;;;1760.30;999.90;;;;;;;17.51;86.94;93025.69;5090566;28;20047;-47
2021/08/27 02:18:01;;;;;;;1835.10;999.90;;;;;;;17.43;86.98;93023.09;5091757;28;20028;-48
2021/08/27 02:20:28;;;;;;;1937.15;999.90;;;;;;;17.41;87.50;93022.97;5090663;28;20024;-48
2021/08/27 02:22:54;;;;;;;1912.32;999.90;;;;;;;17.42;87.30;93012.53;5091842;28;20027;-46
2021/08/27 02:25:21;;;;;;;1844.18;999.90;;;;;;;17.39;87.41;93022.84;5090426;28;20039;-46
2021/08/27 02:27:47;;;;;;;1999.90;999.90;;;;;;;17.35;87.41;93030.22;5090784;28;20074;-46
2021/08/27 02:30:15;;;;;;;1999.90;999.90;;;;;;;17.43;87.91;93030.75;5090629;28;20489;-45
2021/08/27 02:32:42;;;;;;;1999.90;999.90;;;;;;;17.52;87.33;93035.50;5091362;28;20024;-49
2021/08/27 02:35:09;;;;;;;1999.90;999.90;;;;;;;17.50;87.98;93032.59;5088579;28;20148;-47
2021/08/27 02:37:37;;;;;;;1887.00;999.90;;;;;;;17.56;87.32;93026.66;5070003;28;20020;-45
2021/08/27 02:40:04;;;;;;;1663.77;999.90;;;;;;;17.55;86.88;93017.56;5071062;28;20521;-45
2021/08/27 02:42:32;;;;;;;1583.55;999.90;;;;;;;17.53;86.79;93013.91;5071298;28;20028;-46
2021/08/27 02:44:59;;;;;;;1966.93;999.90;;;;;;;17.52;87.30;93010.38;5072187;28;20642;-46
2021/08/27 02:47:25;;;;;;;1648.93;999.90;;;;;;;17.52;87.30;93006.88;5071135;28;20056;-47
2021/08/27 02:49:50;;;;;;;1752.45;999.90;;;;;;;17.45;86.94;93012.03;5071125;28;20071;-47
2021/08/27 02:52:27;;;;;;;1999.90;999.90;;;;;;;17.43;87.77;93011.22;5079656;28;20024;-46
2021/08/27 02:55:06;;;;;;;1999.90;999.90;;;;;;;17.44;88.22;93001.50;5090563;28;20016;-47
2021/08/27 02:58:03;;;;;;;1999.90;999.90;;;;;;;17.40;88.37;93001.25;5091144;28;20028;-46
2021/08/27 03:00:36;;;;;;;1999.90;999.90;;;;;;;17.45;88.75;93005.75;5088687;28;20036;-46
2021/08/27 03:03:04;;;;;;;1999.90;999.90;;;;;;;17.53;88.34;93014.66;5089630;28;20103;-45
2021/08/27 03:05:36;;;;;;;1999.90;999.90;;;;;;;17.48;88.90;93018.47;5090878;28;20024;-44
2021/08/27 03:08:03;;;;;;;1999.90;999.90;;;;;;;17.53;88.70;93036.25;5089640;28;20461;-46
2021/08/27 03:10:33;;;;;;;1999.90;999.90;;;;;;;17.53;88.32;93055.78;5090740;28;20027;-46
2021/08/27 03:13:09;;;;;;;1999.90;999.90;;;;;;;17.51;88.04;93052.88;5089717;28;20139;-45
2021/08/27 03:15:42;;;;;;;1856.90;999.90;;;;;;;17.46;87.94;93035.09;5090949;28;20090;-47
2021/08/27 03:18:18;;;;;;;1999.90;999.90;;;;;;;17.32;88.27;93039.81;5091035;28;20265;-45
2021/08/27 03:20:56;;;;;;;1999.90;999.90;;;;;;;17.23;88.98;93037.84;5089623;28;20039;-47
2021/08/27 03:23:23;;;;;;;1999.90;999.90;;;;;;;17.18;89.81;93024.97;5090719;28;20028;-45
2021/08/27 03:25:49;;;;;;;1999.90;989.33;;;;;;;16.98;90.36;93002.13;5089363;28;20048;-48
2021/08/27 03:28:20;;;;;;;1999.90;999.90;;;;;;;17.11;90.54;93040.59;5089178;28;20020;-46
2021/08/27 03:30:50;;;;;;;1999.90;999.90;;;;;;;17.20;90.23;93042.56;5089516;28;20024;-47
2021/08/27 03:33:16;;;;;;;1999.90;999.90;;;;;;;17.23;89.56;93035.81;5089353;28;20051;-46
2021/08/27 03:35:42;;;;;;;1999.90;999.90;;;;;;;17.30;89.37;93031.31;5089329;28;20473;-47
2021/08/27 03:38:10;;;;;;;1999.90;999.90;;;;;;;17.30;89.19;93029.25;5089289;28;20031;-45
2021/08/27 03:40:35;;;;;;;1999.90;999.90;;;;;;;17.32;89.01;93023.06;5090032;28;20019;-47
2021/08/27 03:43:01;;;;;;;1999.90;999.90;;;;;;;17.31;89.51;93016.03;5090200;28;20074;-47
2021/08/27 03:45:29;;;;;;;1999.90;999.90;;;;;;;17.28;88.30;93011.66;5089066;28;20032;-47
2021/08/27 03:47:55;;;;;;;1999.90;999.90;;;;;;;17.29;89.00;93010.31;5090281;28;20039;-48
2021/08/27 03:50:22;;;;;;;1999.90;999.90;;;;;;;17.30;89.96;93020.16;5088937;28;20406;-47
2021/08/27 03:52:50;;;;;;;1999.90;999.90;;;;;;;17.20;89.83;92989.56;5088781;28;20035;-47
2021/08/27 03:55:16;;;;;;;1999.90;999.90;;;;;;;17.37;89.26;93010.81;5089630;28;20528;-47
2021/08/27 03:57:44;;;;;;;1999.90;999.90;;;;;;;17.29;89.07;93001.94;5089895;28;20489;-47
2021/08/27 04:00:10;;;;;;;1999.90;999.90;;;;;;;17.20;89.45;93002.78;5089945;28;20107;-47
2021/08/27 04:02:36;;;;;;;1999.90;999.90;;;;;;;17.17;89.40;93001.91;5088847;28;20117;-46
2021/08/27 04:05:16;;;;;;;1999.90;999.90;;;;;;;17.10;90.17;92994.53;5088912;28;20050;-46
2021/08/27 04:07:41;;;;;;;1999.90;999.90;;;;;;;17.12;90.09;93010.66;5089963;28;20028;-46
2021/08/27 04:10:08;;;;;;;1999.90;999.90;;;;;;;17.08;90.18;93015.97;5090145;28;20031;-47
2021/08/27 04:12:35;;;;;;;1999.90;999.90;;;;;;;16.96;90.40;93013.13;5089599;28;20098;-48
2021/08/27 04:15:01;;;;;;;1958.95;931.05;;;;;;;16.99;90.84;93017.53;5089706;28;20027;-47
2021/08/27 04:17:26;;;;;;;1661.53;839.00;;;;;;;16.99;91.18;93019.59;5089557;28;20024;-47
2021/08/27 04:19:52;;;;;;;1292.25;687.67;;;;;;;17.03;91.04;93011.47;5089992;28;20089;-46
2021/08/27 04:22:17;;;;;;;963.75;519.42;;;;;;;17.06;91.68;93018.63;5090029;28;20024;-47
2021/08/27 04:24:43;;;;;;;1831.28;936.65;;;;;;;17.12;90.52;93021.81;5089763;28;20412;-46
2021/08/27 04:27:08;;;;;;;1999.90;999.90;;;;;;;17.16;90.26;93022.06;5089608;28;20129;-46
2021/08/27 04:29:34;;;;;;;1999.90;999.90;;;;;;;17.22;90.25;93031.53;5089914;28;20413;-47
2021/08/27 04:32:00;;;;;;;1999.90;999.90;;;;;;;17.29;89.91;93038.22;5089978;28;20598;-48
2021/08/27 04:34:26;;;;;;;1999.90;999.90;;;;;;;17.37;89.78;93027.56;5089833;28;20060;-46
2021/08/27 04:36:52;;;;;;;1999.90;999.90;;;;;;;17.40;89.62;93035.47;5089297;28;20527;-47
2021/08/27 04:39:17;;;;;;;1999.90;999.90;;;;;;;17.49;89.26;93033.19;5089256;28;20024;-46
2021/08/27 04:41:42;;;;;;;1999.90;999.90;;;;;;;17.56;88.88;93035.78;5089379;28;20413;-46
2021/08/27 04:44:08;;;;;;;1999.90;999.90;;;;;;;17.55;88.15;93036.34;5089465;28;20023;-46
2021/08/27 04:46:33;;;;;;;1999.90;999.90;;;;;;;17.56;88.65;93023.88;5088953;28;20622;-46
2021/08/27 04:48:59;;;;;;;1999.90;999.90;;;;;;;17.56;88.91;93029.47;5089119;28;20119;-46
2021/08/27 04:51:25;;;;;;;1999.90;999.90;;;;;;;17.39;88.99;93034.00;5089629;28;20031;-46
2021/08/27 04:53:50;;;;;;;1999.90;999.90;;;;;;;17.53;88.45;93036.97;5088680;28;20040;-48
2021/08/27 04:56:16;;;;;;;1999.90;999.90;;;;;;;17.58;88.43;93047.06;5088530;28;20075;-46
2021/08/27 04:58:41;;;;;;;1999.90;999.90;;;;;;;17.59;88.01;93042.19;5084423;28;20032;-46
2021/08/27 05:01:07;;;;;;;1999.90;999.90;;;;;;;17.60;88.45;93038.06;5087173;28;20120;-48
2021/08/27 05:03:32;;;;;;;1999.90;999.90;;;;;;;17.61;87.79;93037.47;5070064;28;20032;-49
2021/08/27 05:05:58;;;;;;;1999.90;999.90;;;;;;;17.54;87.67;93044.03;5067862;28;20051;-49
2021/08/27 05:08:23;;;;;;;1999.90;999.90;;;;;;;17.54;88.77;93043.28;5067695;28;20171;-46
2021/08/27 05:10:49;;;;;;;1999.90;999.90;;;;;;;17.56;89.25;93051.78;5067244;28;20034;-51
2021/08/27 05:13:15;;;;;;;1999.90;999.90;;;;;;;17.60;89.64;93052.03;5074505;28;20076;-46
2021/08/27 05:15:40;;;;;;;1999.90;999.90;;;;;;;17.66;89.02;93044.03;5086676;28;20417;-48
2021/08/27 05:18:06;;;;;;;1999.90;999.90;;;;;;;17.57;88.74;93033.69;5087308;28;20070;-47
2021/08/27 05:20:31;;;;;;;1999.90;999.90;;;;;;;17.69;89.46;93046.34;5087407;28;20088;-46
2021/08/27 05:22:57;;;;;;;1999.90;999.90;;;;;;;17.71;88.98;93046.47;5088478;28;20038;-46
2021/08/27 05:25:22;;;;;;;1999.90;999.90;;;;;;;17.76;88.78;93056.53;5090987;28;20606;-46
2021/08/27 05:27:50;;;;;;;1999.90;999.90;;;;;;;17.82;88.96;93054.13;5091361;28;20031;-47
2021/08/27 05:30:18;;;;;;;1832.45;999.90;;;;;;;17.79;87.29;93052.53;5090806;28;20028;-48
2021/08/27 05:32:44;;;;;;;1999.90;999.90;;;;;;;17.72;87.45;93047.91;5091415;28;20103;-48
2021/08/27 05:35:10;;;;;;;1996.32;999.90;;;;;;;17.63;87.57;93043.16;5092534;28;20024;-48
2021/08/27 05:37:35;;;;;;;1999.90;999.90;;;;;;;17.65;88.34;93054.47;5092434;28;20028;-47
2021/08/27 05:40:01;;;;;;;1999.90;999.90;;;;;;;17.72;88.73;93058.34;5092585;28;20455;-48
2021/08/27 05:42:26;;;;;;;1999.90;999.90;;;;;;;17.74;88.99;93055.69;5092458;28;20110;-46
2021/08/27 05:44:52;;;;;;;1999.90;999.90;;;;;;;17.80;89.55;93047.69;5092437;28;20077;-46
2021/08/27 05:47:17;;;;;;;1999.90;999.90;;;;;;;17.91;89.81;93060.94;5092330;28;20055;-47
2021/08/27 05:49:43;;;;;;;1999.90;999.90;;;;;;;18.05;88.61;93056.94;5092389;28;20020;-47
2021/08/27 05:52:08;;;;;;;1999.90;999.90;;;;;;;18.18;88.29;93061.91;5092542;28;20023;-46
2021/08/27 05:54:34;;;;;;;1385.93;999.90;;;;;;;18.31;87.89;93063.34;5091799;28;20020;-48
2021/08/27 05:57:00;;;;;;;1380.40;999.90;;;;;;;18.39;87.61;93065.88;5092281;28;20024;-48
2021/08/27 05:59:26;;;;;;;1151.80;999.90;;;;;;;18.31;86.29;93057.75;5092305;28;20028;-46
2021/08/27 06:01:51;;;;;;;1106.20;992.60;;;;;;;18.12;86.14;93039.19;5092153;28;20059;-47
2021/08/27 06:04:16;;;;;;;1335.97;999.90;;;;;;;18.33;86.98;93055.09;5092110;28;20024;-47
2021/08/27 06:06:42;;;;;;;1076.68;964.33;;;;;;;18.36;86.06;93050.34;5092309;28;20012;-46
2021/08/27 06:09:08;;;;;;;1185.10;999.90;;;;;;;18.34;86.31;93039.78;5091874;28;20417;-46
2021/08/27 06:11:37;;;;;;;1143.88;999.90;;;;;;;18.47;86.54;93047.56;5092197;28;20024;-47
2021/08/27 06:14:07;;;;;;;1168.22;999.90;;;;;;;18.60;86.84;93057.38;5092187;28;20035;-47
2021/08/27 06:16:33;;;;;;;873.92;795.13;;;;;;;18.66;84.77;93066.13;5092126;28;20024;-46
2021/08/27 06:18:59;;;;;;;861.97;781.42;;;;;;;18.81;85.34;93065.59;5091690;28;20035;-46
2021/08/27 06:21:25;;;;;;;1181.97;999.90;;;;;;;18.97;84.34;93055.34;5091842;28;20024;-47
2021/08/27 06:23:52;;;;;;;1351.97;999.90;;;;;;;19.26;83.84;93063.25;5090445;28;20076;-47
2021/08/27 06:26:18;;;;;;;1868.43;999.90;;;;;;;19.50;82.26;93059.75;5091567;28;20123;-48
2021/08/27 06:28:43;;;;;;;1858.35;999.90;;;;;;;19.46;80.85;93036.41;5091801;28;20043;-51
2021/08/27 06:31:09;;;;;;;1436.55;999.90;;;;;;;19.88;78.73;93065.97;5090668;28;20548;-46
2021/08/27 06:33:34;;;;;;;1215.40;999.90;;;;;;;20.25;76.93;93060.94;5071243;28;20546;-49
2021/08/27 06:36:00;;;;;;;1109.18;998.88;;;;;;;20.59;75.69;93062.75;5072649;28;20077;-46
2021/08/27 06:38:25;;;;;;;563.40;527.00;;;;;;;20.57;72.41;93073.13;5071452;28;20024;-46
2021/08/27 06:41:00;;;;;;;899.90;833.00;;;;;;;20.58;73.43;93080.91;5072245;28;20024;-46
2021/08/27 06:43:27;;;;;;;1046.50;955.05;;;;;;;20.69;74.88;93082.88;5071333;28;20036;-48
2021/08/27 06:45:57;;;;;;;1019.10;929.22;;;;;;;20.83;74.35;93075.19;5071100;28;20024;-46
2021/08/27 06:48:23;;;;;;;713.20;665.58;;;;;;;20.84;73.08;93085.06;5071292;28;20016;-46
2021/08/27 06:50:48;;;;;;;677.60;631.20;;;;;;;20.90;72.52;93079.75;5069665;28;20559;-48
2021/08/27 06:53:14;;;;;;;536.70;502.67;;;;;;;21.02;71.95;93076.81;5088750;28;20078;-47
2021/08/27 06:55:40;;;;;;;662.40;618.97;;;;;;;21.23;72.61;93082.09;5090013;28;20107;-46
2021/08/27 06:58:05;;;;;;;465.75;437.55;;;;;;;21.51;71.28;93077.09;5091047;28;20028;-46
2021/08/27 07:00:31;;;;;;;361.50;341.67;;;;;;;21.74;70.25;93068.38;5085064;28;20019;-46
2021/08/27 07:02:57;;;;;;;347.95;328.17;;;;;;;22.05;69.49;93065.63;5084547;28;20024;-45
2021/08/27 07:05:22;;;;;;;288.33;274.00;;;;;;;22.24;67.50;93070.00;5081490;28;20106;-47
2021/08/27 07:07:48;;;;;;;402.23;380.45;;;;;;;22.46;67.52;93062.53;5090858;28;20107;-47
2021/08/27 07:10:13;;;;;;;470.40;444.50;;;;;;;22.54;67.57;93060.09;5090649;28;20024;-47
2021/08/27 07:12:40;;;;;;;532.67;502.67;;;;;;;22.07;68.56;93074.16;5090689;28;20103;-46
2021/08/27 07:15:06;;;;;;;759.95;708.40;;;;;;;21.88;70.38;93077.50;5090703;28;20494;-47
2021/08/27 07:17:32;;;;;;;820.15;766.38;;;;;;;22.12;70.99;93075.06;5090909;28;20016;-45
2021/08/27 07:19:57;;;;;;;690.63;647.08;;;;;;;22.08;70.82;93077.69;5090931;28;20400;-46
2021/08/27 07:22:23;;;;;;;613.92;578.03;;;;;;;22.92;68.39;93073.00;5090910;28;20023;-46
2021/08/27 07:24:48;;;;;;;664.72;625.78;;;;;;;24.64;63.34;93083.38;5090797;28;20022;-46
2021/08/27 07:27:14;;;;;;;670.25;631.15;;;;;;;26.59;55.85;93083.44;5090344;28;20043;-47
2021/08/27 07:29:39;;;;;;;385.65;365.00;;;;;;;28.10;50.65;93085.34;5090566;28;20024;-48
2021/08/27 07:32:06;;;;;;;36.33;34.53;;;;;;;28.88;48.56;93077.09;5090582;28;20512;-46
2021/08/27 07:34:32;;;;;;;5.60;4.70;;;;;;;28.40;48.54;93083.19;5090535;28;20027;-46
2021/08/27 07:36:58;;;;;;;6.10;4.85;;;;;;;29.57;46.27;93090.50;5090209;28;20572;-47
2021/08/27 07:39:23;;;;;;;6.47;3.75;;;;;;;30.28;40.91;93095.25;5090230;28;20111;-48
2021/08/27 07:41:49;;;;;;;4.35;3.95;;;;;;;30.09;42.82;93091.41;5090581;28;20019;-48
2021/08/27 07:44:14;;;;;;;5.65;4.18;;;;;;;29.97;41.59;93096.94;5090417;28;20096;-45
2021/08/27 07:46:40;;;;;;;4.80;4.35;;;;;;;27.70;45.96;93098.50;5089693;28;20115;-47
2021/08/27 07:49:05;;;;;;;6.60;5.15;;;;;;;26.41;51.10;93103.44;5090103;28;20024;-46
2021/08/27 07:51:31;;;;;;;6.60;5.18;;;;;;;25.94;52.14;93104.09;5090413;28;20015;-49
2021/08/27 07:53:56;;;;;;;17.30;16.08;;;;;;;24.62;56.27;93108.69;5089948;28;20016;-49
2021/08/27 07:56:22;;;;;;;534.80;504.95;;;;;;;23.81;58.77;93110.50;5089946;28;20499;-49
2021/08/27 07:58:47;;;;;;;790.78;742.60;;;;;;;23.71;60.04;93108.00;5089795;28;20034;-49
2021/08/27 08:01:13;;;;;;;814.63;766.90;;;;;;;23.09;62.77;93117.38;5089670;28;20165;-48
2021/08/27 08:03:38;;;;;;;829.25;778.28;;;;;;;22.38;63.38;93110.72;5090291;28;20019;-46
2021/08/27 08:06:04;;;;;;;964.20;897.00;;;;;;;21.96;66.68;93114.41;5082700;28;20017;-47
2021/08/27 08:08:29;;;;;;;979.55;899.83;;;;;;;21.57;65.48;93123.06;5069899;28;20020;-46
2021/08/27 08:10:54;;;;;;;1012.95;937.33;;;;;;;21.49;66.26;93114.25;5070452;28;20447;-46
2021/08/27 08:13:20;;;;;;;988.22;918.08;;;;;;;21.58;67.91;93118.19;5070938;28;20024;-47
2021/08/27 08:15:45;;;;;;;983.80;915.88;;;;;;;21.78;67.96;93111.47;5069089;28;20425;-49
2021/08/27 08:18:11;;;;;;;938.83;877.28;;;;;;;22.59;67.82;93107.47;5069868;28;20024;-49
2021/08/27 08:20:36;;;;;;;886.85;830.67;;;;;;;23.69;61.67;93102.28;5068362;28;20024;-48
2021/08/27 08:23:02;;;;;;;833.60;782.38;;;;;;;23.36;62.24;93107.97;5069835;28;20077;-48
2021/08/27 08:25:27;;;;;;;863.17;808.65;;;;;;;23.50;61.78;93096.56;5089355;28;20174;-48
2021/08/27 08:27:53;;;;;;;745.85;703.55;;;;;;;24.56;60.10;93097.91;5089795;28;20036;-48
2021/08/27 08:30:18;;;;;;;772.55;726.85;;;;;;;26.12;54.50;93101.13;5089933;28;20056;-49
2021/08/27 08:32:44;;;;;;;304.98;290.52;;;;;;;26.97;51.34;93095.88;5089484;28;20436;-49
2021/08/27 08:35:09;;;;;;;70.32;66.70;;;;;;;27.20;50.23;93108.53;5089557;28;20023;-48
2021/08/27 08:37:41;;;;;;;9.40;8.38;;;;;;;27.22;49.35;93095.16;5089820;28;20043;-47
2021/08/27 08:40:09;;;;;;;7.10;6.38;;;;;;;27.92;47.55;93101.16;5089600;28;20109;-48
2021/08/27 08:42:35;;;;;;;8.73;6.07;;;;;;;28.65;49.02;93104.34;5087267;28;20429;-51
2021/08/27 08:45:03;;;;;;;7.63;6.13;;;;;;;27.55;48.55;93093.88;5088793;28;20729;-49
2021/08/27 08:47:32;;;;;;;6.65;6.05;;;;;;;28.46;47.81;93100.34;5088246;28;20119;-53
2021/08/27 08:49:59;;;;;;;6.93;5.43;;;;;;;30.18;43.17;93098.69;5088186;28;20051;-51
2021/08/27 08:52:26;;;;;;;7.30;6.40;;;;;;;30.19;44.25;93100.09;5086997;28;20032;-49
2021/08/27 08:54:51;;;;;;;6.63;5.32;;;;;;;30.73;40.35;93098.06;5086862;28;20032;-48
2021/08/27 08:57:20;;;;;;;7.68;5.35;;;;;;;31.49;40.58;93094.75;5087956;28;20481;-52
2021/08/27 08:59:45;;;;;;;;;;;;;;;32.59;39.29;93095.03;5091166;28;20032;-48
2021/08/27 09:02:11;;;;;;;4.85;4.40;;;;;;;31.97;36.62;93091.66;5090764;28;19974;-47
2021/08/27 09:04:36;;;;;;;5.28;4.63;;;;;;;31.69;38.69;93088.53;5091394;28;20047;-51
2021/08/27 09:07:02;;;;;;;5.65;4.55;;;;;;;31.39;37.56;93083.22;5090908;28;20504;-50
2021/08/27 09:09:35;;;;;;;7.07;5.57;;;;;;;31.00;39.59;93055.66;5091095;28;20024;-50
2021/08/27 09:12:17;;;;;;;8.45;5.18;;;;;;;29.97;40.87;93079.84;5089737;28;20516;-49
2021/08/27 09:14:55;;;;;;;6.90;5.82;;;;;;;29.80;41.38;93073.16;5089983;28;20411;-50
2021/08/27 09:17:27;;;;;;;7.15;6.43;;;;;;;29.56;42.00;93064.19;5089788;28;20397;-48
2021/08/27 09:19:53;;;;;;;8.25;6.30;;;;;;;30.94;39.33;93064.16;5091473;28;20020;-51
2021/08/27 09:22:20;;;;;;;7.05;6.03;;;;;;;31.62;37.00;93069.94;5091265;28;20474;-47
2021/08/27 09:25:04;;;;;;;8.57;5.97;;;;;;;32.21;39.06;93069.00;5090756;28;20143;-48
2021/08/27 09:27:31;;;;;;;10.70;5.85;;;;;;;33.02;35.98;93075.25;5088274;28;20071;-48
2021/08/27 09:29:58;;;;;;;5.35;4.85;;;;;;;31.89;36.29;93068.72;5082397;28;20037;-49
2021/08/27 09:32:30;;;;;;;13.85;5.50;;;;;;;32.20;36.86;93072.56;5085598;28;20028;-47
2021/08/27 09:35:02;;;;;;;10.15;5.38;;;;;;;33.27;37.66;93056.72;5090647;28;20032;-49
2021/08/27 09:37:50;;;;;;;5.15;4.65;;;;;;;33.86;35.75;93066.91;5087293;28;20428;-45
2021/08/27 09:40:34;;;;;;;5.43;4.50;;;;;;;33.54;33.16;93064.72;5069979;28;20032;-48
2021/08/27 09:43:00;;;;;;;10.57;5.32;;;;;;;34.37;35.13;93070.53;5069210;28;20032;-45
2021/08/27 09:45:37;;;;;;;5.80;5.07;;;;;;;34.74;30.72;93068.34;5069098;28;20036;-49
2021/08/27 09:48:05;;;;;;;5.57;4.95;;;;;;;33.43;33.52;93068.22;5067006;28;20025;-46
2021/08/27 09:50:35;;;;;;;7.20;5.70;;;;;;;32.05;36.39;93068.91;5068673;28;20039;-49
2021/08/27 09:53:01;;;;;;;10.00;5.28;;;;;;;30.95;38.49;93065.59;5075585;28;20035;-45
2021/08/27 09:55:30;;;;;;;6.28;5.25;;;;;;;31.57;37.20;93060.59;5089261;28;20105;-50
2021/08/27 09:58:06;;;;;;;5.20;4.53;;;;;;;32.37;35.30;93054.13;5083286;28;20040;-49
2021/08/27 10:00:37;;;;;;;8.27;5.03;;;;;;;33.07;35.50;93048.78;5089742;28;20039;-46
2021/08/27 10:03:23;;;;;;;6.43;5.78;;;;;;;33.19;33.33;93051.00;5089304;28;20031;-47
2021/08/27 10:05:49;;;;;;;6.85;5.20;;;;;;;33.12;33.01;93043.81;5089652;28;20023;-48
2021/08/27 10:08:17;;;;;;;5.57;5.07;;;;;;;32.51;34.27;93046.38;5088880;28;20417;-50
2021/08/27 10:10:43;;;;;;;6.47;5.28;;;;;;;31.43;35.35;93040.47;5088806;28;20054;-47
2021/08/27 10:13:10;;;;;;;6.07;5.35;;;;;;;32.07;35.86;93021.09;5088443;28;20067;-50
2021/08/27 10:15:35;;;;;;;10.75;5.32;;;;;;;31.42;36.56;93036.19;5088565;28;20043;-47
2021/08/27 10:18:07;;;;;;;6.30;5.70;;;;;;;29.54;40.08;93043.53;5087546;28;20024;-46
2021/08/27 10:20:32;;;;;;;5.53;4.95;;;;;;;27.65;44.01;93031.75;5088478;28;20024;-49
2021/08/27 10:22:58;;;;;;;8.02;5.47;;;;;;;27.59;46.87;93040.81;5088787;28;20031;-47
2021/08/27 10:25:27;;;;;;;7.93;5.45;;;;;;;29.06;41.40;93029.13;5088671;28;20386;-48
2021/08/27 10:27:54;;;;;;;4.88;4.32;;;;;;;30.69;38.01;93031.75;5089080;28;20553;-49
2021/08/27 10:30:19;;;;;;;5.97;5.40;;;;;;;30.82;39.86;93035.50;5088746;28;20036;-48
2021/08/27 10:32:45;;;;;;;7.07;4.78;;;;;;;31.84;36.13;93024.41;5088178;28;20476;-47
2021/08/27 10:35:22;;;;;;;5.60;4.90;;;;;;;31.79;35.40;93026.56;5088601;28;20023;-51
2021/08/27 10:37:49;;;;;;;6.13;5.30;;;;;;;31.02;36.74;93016.50;5088587;28;20058;-47
2021/08/27 10:40:39;;;;;;;9.70;5.35;;;;;;;31.02;36.19;93018.63;5088357;28;20039;-47
2021/08/27 10:43:05;;;;;;;6.97;5.45;;;;;;;32.28;34.76;93010.50;5080161;28;20126;-48
2021/08/27 10:45:33;;;;;;;6.65;5.03;;;;;;;31.41;35.42;93015.50;5088365;28;20193;-47
2021/08/27 10:48:13;;;;;;;7.25;5.60;;;;;;;30.53;36.88;93018.03;5087120;28;20118;-47
2021/08/27 10:50:42;;;;;;;6.63;5.95;;;;;;;29.85;36.07;93017.03;5070001;28;20036;-48
2021/08/27 10:53:32;;;;;;;9.10;5.45;;;;;;;29.53;39.16;93022.91;5078040;28;20047;-46
2021/08/27 10:56:02;;;;;;;6.80;5.90;;;;;;;29.49;39.23;93017.13;5072711;28;20408;-47
2021/08/27 10:59:06;;;;;;;7.40;5.68;;;;;;;30.42;40.40;93022.16;5087816;28;20128;-48
2021/08/27 11:01:34;;;;;;;7.05;5.32;;;;;;;29.89;37.48;93026.34;5085076;28;20036;-46
2021/08/27 11:04:31;;;;;;;10.70;6.97;;;;;;;29.96;39.88;93010.06;5088217;28;20042;-47
2021/08/27 11:07:04;;;;;;;7.55;5.70;;;;;;;29.97;40.68;93020.06;5087924;28;20036;-52
2021/08/27 11:09:30;;;;;;;8.40;5.80;;;;;;;29.96;40.36;93015.78;5087540;28;20084;-49